createdAt,value
2018-01-06T00:01:27.790Z,2.50
2018-01-06T00:03:55.773Z,3.90
2018-01-06T00:06:24.116Z,4.00
2018-01-06T00:08:52.463Z,2.27
2018-01-06T00:11:21.652Z,3.20
2018-01-06T00:13:49.259Z,5.70
2018-01-06T00:16:18.024Z,2.40
2018-01-06T00:18:45.600Z,1.87
2018-01-06T00:21:14.178Z,2.30
2018-01-06T00:23:42.518Z,2.03
2018-01-06T00:26:10.843Z,2.63
2018-01-06T00:28:39.228Z,2.77
2018-01-06T00:31:07.510Z,2.43
2018-01-06T00:33:35.859Z,5.40
2018-01-06T00:36:04.179Z,5.10
2018-01-06T00:38:32.498Z,5.30
2018-01-06T00:41:01.049Z,3.60
2018-01-06T00:43:29.038Z,3.63
2018-01-06T00:45:58.287Z,3.23
2018-01-06T00:48:25.859Z,5.60
2018-01-06T00:50:54.137Z,7.23
2018-01-06T00:53:22.469Z,5.23
2018-01-06T00:55:50.767Z,4.40
2018-01-06T00:58:19.813Z,3.87
2018-01-06T01:00:47.345Z,5.23
2018-01-06T01:03:14.866Z,2.60
2018-01-06T01:05:42.807Z,2.50
2018-01-06T01:08:11.104Z,3.00
2018-01-06T01:10:39.404Z,4.30
2018-01-06T01:13:07.736Z,3.53
2018-01-06T01:15:36.218Z,3.10
2018-01-06T01:18:04.508Z,2.83
2018-01-06T01:20:32.937Z,2.67
2018-01-06T01:23:01.954Z,3.00
2018-01-06T01:25:29.493Z,4.10
2018-01-06T01:27:57.779Z,3.50
2018-01-06T01:30:26.327Z,2.90
2018-01-06T01:32:54.612Z,4.73
2018-01-06T01:35:22.921Z,2.90
2018-01-06T01:37:50.441Z,2.73
2018-01-06T01:40:17.972Z,4.27
2018-01-06T01:42:45.502Z,3.00
2018-01-06T01:45:13.800Z,8.90
2018-01-06T01:47:41.708Z,4.60
2018-01-06T01:50:09.258Z,5.83
2018-01-06T01:52:36.766Z,4.57
2018-01-06T01:55:04.334Z,4.63
2018-01-06T01:57:31.858Z,4.13
2018-01-06T01:59:59.644Z,4.40
2018-01-06T02:02:27.160Z,4.90
2018-01-06T02:04:54.689Z,5.10
2018-01-06T02:07:22.209Z,4.87
2018-01-06T02:12:47.969Z,3.80
2018-01-06T02:15:15.501Z,4.80
2018-01-06T02:17:43.020Z,4.93
2018-01-06T02:20:10.558Z,5.10
2018-01-06T02:22:38.078Z,5.33
2018-01-06T02:25:06.554Z,5.47
2018-01-06T02:27:34.079Z,7.27
2018-01-06T02:30:01.609Z,8.30
2018-01-06T02:32:29.916Z,7.57
2018-01-06T02:34:57.430Z,8.80
2018-01-06T02:37:24.972Z,7.30
2018-01-06T02:39:53.254Z,6.97
2018-01-06T02:42:20.792Z,10.33
2018-01-06T02:44:48.309Z,8.70
2018-01-06T02:47:16.609Z,7.23
2018-01-06T02:49:44.124Z,7.57
2018-01-06T02:52:11.678Z,8.40
2018-01-06T02:54:39.202Z,9.00
2018-01-06T02:57:06.750Z,11.13
2018-01-06T02:59:35.035Z,7.10
2018-01-06T03:02:02.567Z,14.57
2018-01-06T03:04:30.072Z,7.53
2018-01-06T03:06:59.469Z,7.00
2018-01-06T03:09:27.007Z,9.07
2018-01-06T03:11:54.537Z,8.67
2018-01-06T03:14:22.859Z,10.20
2018-01-06T03:16:50.395Z,9.33
2018-01-06T03:19:17.917Z,9.87
2018-01-06T03:21:45.726Z,8.63
2018-01-06T03:24:13.241Z,8.47
2018-01-06T03:26:40.776Z,7.50
2018-01-06T03:29:08.293Z,8.20
2018-01-06T03:31:35.832Z,8.83
2018-01-06T03:34:04.113Z,10.40
2018-01-06T03:36:32.421Z,7.20
2018-01-06T03:38:59.938Z,11.17
2018-01-06T03:41:29.072Z,8.00
2018-01-06T03:43:56.593Z,7.13
2018-01-06T03:46:24.134Z,8.40
2018-01-06T03:48:52.408Z,9.13
2018-01-06T03:51:19.925Z,10.00
2018-01-06T03:53:47.453Z,8.40
2018-01-06T03:56:14.977Z,7.07
2018-01-06T03:58:42.518Z,9.43
2018-01-06T04:01:10.033Z,7.57
2018-01-06T04:03:38.289Z,8.07
2018-01-06T04:06:05.808Z,7.77
2018-01-06T04:08:33.337Z,5.90
2018-01-06T04:11:00.861Z,6.20
2018-01-06T04:13:29.178Z,7.30
2018-01-06T04:15:57.454Z,5.73
2018-01-06T04:18:24.984Z,6.13
2018-01-06T04:20:52.513Z,5.30
2018-01-06T04:23:20.977Z,7.37
2018-01-06T04:25:48.496Z,5.90
2018-01-06T04:28:16.472Z,6.47
2018-01-06T04:30:44.685Z,6.33
2018-01-06T04:33:12.211Z,8.40
2018-01-06T04:35:39.712Z,6.60
2018-01-06T04:38:07.274Z,7.30
2018-01-06T04:40:34.776Z,10.63
2018-01-06T04:43:02.316Z,6.57
2018-01-06T04:45:29.829Z,12.20
2018-01-06T04:47:57.361Z,10.63
2018-01-06T04:50:24.893Z,7.13
2018-01-06T04:52:52.430Z,7.13
2018-01-06T04:55:19.949Z,5.57
2018-01-06T04:57:48.004Z,6.33
2018-01-06T05:00:15.508Z,6.53
2018-01-06T05:02:43.009Z,9.10
2018-01-06T05:05:11.733Z,6.70
2018-01-06T05:07:39.246Z,7.60
2018-01-06T05:10:06.777Z,6.70
2018-01-06T05:12:34.295Z,6.47
2018-01-06T05:15:01.817Z,6.67
2018-01-06T05:17:29.327Z,6.10
2018-01-06T05:19:56.844Z,5.73
2018-01-06T05:22:24.349Z,7.60
2018-01-06T05:24:51.889Z,8.00
2018-01-06T05:27:19.392Z,7.80
2018-01-06T05:29:47.741Z,7.27
2018-01-06T05:32:15.249Z,8.53
2018-01-06T05:34:43.224Z,12.37
2018-01-06T05:37:11.230Z,12.30
2018-01-06T05:39:39.284Z,9.07
2018-01-06T05:42:06.783Z,8.97
2018-01-06T05:44:35.084Z,8.90
2018-01-06T05:47:02.612Z,10.53
2018-01-06T05:49:30.394Z,7.63
2018-01-06T05:51:57.911Z,8.70
2018-01-06T05:54:25.454Z,9.93
2018-01-06T05:56:53.686Z,9.10
2018-01-06T05:59:21.226Z,7.90
2018-01-06T06:01:48.733Z,8.63
2018-01-06T06:04:16.257Z,8.80
2018-01-06T06:06:43.755Z,8.00
2018-01-06T06:09:11.292Z,10.30
2018-01-06T06:11:38.802Z,8.40
2018-01-06T06:14:06.337Z,9.80
2018-01-06T06:16:33.872Z,7.57
2018-01-06T06:19:01.396Z,7.80
2018-01-06T06:21:28.922Z,9.60
2018-01-06T06:23:56.420Z,8.07
2018-01-06T06:26:25.466Z,9.33
2018-01-06T06:28:53.208Z,9.60
2018-01-06T06:31:21.510Z,8.30
2018-01-06T06:33:49.024Z,11.47
2018-01-06T06:36:16.558Z,12.20
2018-01-06T06:38:44.069Z,12.20
2018-01-06T06:41:11.610Z,9.43
2018-01-06T06:43:39.116Z,7.67
2018-01-06T06:46:06.651Z,14.87
2018-01-06T06:48:34.173Z,9.97
2018-01-06T06:51:01.705Z,8.60
2018-01-06T06:53:29.208Z,13.93
2018-01-06T06:55:57.652Z,8.53
2018-01-06T06:58:25.165Z,8.70
2018-01-06T07:00:53.453Z,9.00
2018-01-06T07:03:20.970Z,8.13
2018-01-06T07:05:48.508Z,7.63
2018-01-06T07:08:16.020Z,9.40
2018-01-06T07:10:44.312Z,7.93
2018-01-06T07:13:12.212Z,8.00
2018-01-06T07:15:39.736Z,10.83
2018-01-06T07:18:07.988Z,7.33
2018-01-06T07:20:36.293Z,10.70
2018-01-06T07:23:03.818Z,10.40
2018-01-06T07:25:32.157Z,7.07
2018-01-06T07:27:59.669Z,9.57
2018-01-06T07:30:27.185Z,10.20
2018-01-06T07:32:55.454Z,7.67
2018-01-06T07:35:22.965Z,8.70
2018-01-06T07:37:51.253Z,7.97
2018-01-06T07:40:19.530Z,6.63
2018-01-06T07:42:47.066Z,6.17
2018-01-06T07:45:15.065Z,6.77
2018-01-06T07:47:42.605Z,6.67
2018-01-06T07:50:10.876Z,7.70
2018-01-06T07:52:38.409Z,6.67
2018-01-06T07:55:05.921Z,7.53
2018-01-06T07:57:33.458Z,7.27
2018-01-06T08:00:01.733Z,6.43
2018-01-06T08:02:29.259Z,11.20
2018-01-06T08:04:56.766Z,9.03
2018-01-06T08:07:25.577Z,10.93
2018-01-06T08:09:53.093Z,11.63
2018-01-06T08:12:20.638Z,12.10
2018-01-06T08:14:48.976Z,17.30
2018-01-06T08:17:16.527Z,10.23
2018-01-06T08:19:44.040Z,11.10
2018-01-06T08:22:11.572Z,13.10
2018-01-06T08:24:39.088Z,9.90
2018-01-06T08:27:06.678Z,13.03
2018-01-06T08:29:34.154Z,12.47
2018-01-06T08:32:01.713Z,12.30
2018-01-06T08:34:29.264Z,12.80
2018-01-06T08:36:56.799Z,9.10
2018-01-06T08:39:25.085Z,14.70
2018-01-06T08:41:52.623Z,20.13
2018-01-06T08:44:20.133Z,16.63
2018-01-06T08:46:47.669Z,10.70
2018-01-06T08:49:15.199Z,12.10
2018-01-06T08:51:43.509Z,11.13
2018-01-06T08:54:11.039Z,13.90
2018-01-06T08:56:39.385Z,13.37
2018-01-06T08:59:06.916Z,12.50
2018-01-06T09:01:34.453Z,11.30
2018-01-06T09:04:02.746Z,14.57
2018-01-06T09:06:30.266Z,13.27
2018-01-06T09:08:57.836Z,17.53
2018-01-06T09:11:26.121Z,14.10
2018-01-06T09:13:54.597Z,13.97
2018-01-06T09:16:22.123Z,16.20
2018-01-06T09:18:49.657Z,14.77
2018-01-06T09:21:17.981Z,13.57
2018-01-06T09:23:45.516Z,10.13
2018-01-06T09:26:13.043Z,10.90
2018-01-06T09:28:40.589Z,14.67
2018-01-06T09:31:08.507Z,14.00
2018-01-06T09:33:36.049Z,13.00
2018-01-06T09:36:03.967Z,15.17
2018-01-06T09:38:32.276Z,17.67
2018-01-06T09:40:59.801Z,16.60
2018-01-06T09:43:27.350Z,15.73
2018-01-06T09:45:54.868Z,14.17
2018-01-06T09:48:22.457Z,18.33
2018-01-06T09:50:50.741Z,16.17
2018-01-06T09:53:18.280Z,19.77
2018-01-06T09:55:45.798Z,17.50
2018-01-06T09:58:14.112Z,17.07
2018-01-06T10:00:41.639Z,15.60
2018-01-06T10:03:09.953Z,18.50
2018-01-06T10:05:37.469Z,24.60
2018-01-06T10:08:05.663Z,16.47
2018-01-06T10:10:33.198Z,16.93
2018-01-06T10:13:00.760Z,15.83
2018-01-06T10:15:28.284Z,14.93
2018-01-06T10:17:56.210Z,15.40
2018-01-06T10:20:23.756Z,14.73
2018-01-06T10:22:52.384Z,14.03
2018-01-06T10:25:19.935Z,17.07
2018-01-06T10:27:47.786Z,12.63
2018-01-06T10:30:15.327Z,16.83
2018-01-06T10:32:43.604Z,14.57
2018-01-06T10:35:13.244Z,13.60
2018-01-06T10:37:40.757Z,23.93
2018-01-06T10:40:08.293Z,18.50
2018-01-06T10:42:36.700Z,15.43
2018-01-06T10:45:05.176Z,13.63
2018-01-06T10:47:32.738Z,12.93
2018-01-06T10:50:00.997Z,12.10
2018-01-06T10:52:28.524Z,11.70
2018-01-06T10:54:56.073Z,10.53
2018-01-06T10:57:23.597Z,10.40
2018-01-06T10:59:51.141Z,10.00
2018-01-06T11:02:18.660Z,8.57
2018-01-06T11:04:47.033Z,6.90
2018-01-06T11:07:14.557Z,8.03
2018-01-06T11:09:42.769Z,5.23
2018-01-06T11:12:10.288Z,5.73
2018-01-06T11:14:37.868Z,7.63
2018-01-06T11:17:05.389Z,10.07
2018-01-06T11:19:33.333Z,5.80
2018-01-06T11:22:01.628Z,7.33
2018-01-06T11:24:29.949Z,5.43
2018-01-06T11:26:58.246Z,5.73
2018-01-06T11:29:26.544Z,4.17
2018-01-06T11:31:55.375Z,5.20
2018-01-06T11:34:23.666Z,5.97
2018-01-06T11:36:51.974Z,5.27
2018-01-06T11:39:20.366Z,5.00
2018-01-06T11:41:48.669Z,5.53
2018-01-06T11:44:16.950Z,3.40
2018-01-06T11:46:45.262Z,6.73
2018-01-06T11:49:13.547Z,7.00
2018-01-06T11:51:42.169Z,5.60
2018-01-06T11:54:10.078Z,4.33
2018-01-06T11:56:37.624Z,4.47
2018-01-06T11:59:05.542Z,4.57
2018-01-06T12:01:33.841Z,6.90
2018-01-06T12:04:02.897Z,8.63
2018-01-06T12:06:30.829Z,6.07
2018-01-06T12:08:59.080Z,7.67
2018-01-06T12:11:27.381Z,4.50
2018-01-06T12:13:55.718Z,3.40
2018-01-06T12:16:24.024Z,1.70
2018-01-06T12:18:52.336Z,1.90
2018-01-06T12:21:20.671Z,2.90
2018-01-06T12:23:48.961Z,8.43
2018-01-06T12:26:17.256Z,5.57
2018-01-06T12:28:45.609Z,4.70
2018-01-06T12:31:13.955Z,2.20
2018-01-06T12:33:42.280Z,5.40
2018-01-06T12:36:10.569Z,3.00
2018-01-06T12:38:38.973Z,3.93
2018-01-06T12:41:07.299Z,2.80
2018-01-06T12:43:35.564Z,5.00
2018-01-06T12:46:03.111Z,16.73
2018-01-06T12:48:31.045Z,10.77
2018-01-06T12:51:00.208Z,9.13
2018-01-06T12:53:27.737Z,11.60
2018-01-06T12:55:56.121Z,3.33
2018-01-06T12:58:24.542Z,14.03
2018-01-06T13:00:52.820Z,24.63
2018-01-06T13:03:21.139Z,37.10
2018-01-06T13:05:49.426Z,31.37
2018-01-06T13:08:17.736Z,40.47
2018-01-06T13:10:46.015Z,16.47
2018-01-06T13:13:13.554Z,3.40
2018-01-06T13:15:41.473Z,7.40
2018-01-06T13:18:09.776Z,23.93
2018-01-06T13:20:38.065Z,13.47
2018-01-06T13:23:06.514Z,12.73
2018-01-06T13:25:34.804Z,23.93
2018-01-06T13:28:03.101Z,16.23
2018-01-06T13:30:31.372Z,7.60
2018-01-06T13:32:59.690Z,14.80
2018-01-06T13:35:28.278Z,2.77
2018-01-06T13:37:56.581Z,2.60
2018-01-06T13:40:24.864Z,4.03
2018-01-06T13:42:53.172Z,6.57
2018-01-06T13:45:21.450Z,3.10
2018-01-06T13:47:49.753Z,2.57
2018-01-06T13:50:18.039Z,3.67
2018-01-06T13:52:46.344Z,2.23
2018-01-06T13:55:14.696Z,2.53
2018-01-06T13:57:42.994Z,2.73
2018-01-06T14:00:10.498Z,2.37
2018-01-06T14:02:38.434Z,2.83
2018-01-06T14:05:07.117Z,2.43
2018-01-06T14:07:35.937Z,4.30
2018-01-06T14:10:03.478Z,2.10
2018-01-06T14:12:31.852Z,2.90
2018-01-06T14:15:00.233Z,7.13
2018-01-06T14:17:28.474Z,4.30
2018-01-06T14:19:56.774Z,3.90
2018-01-06T14:22:25.047Z,2.93
2018-01-06T14:24:53.820Z,6.80
2018-01-06T14:27:22.812Z,6.27
2018-01-06T14:29:50.341Z,5.47
2018-01-06T14:32:18.254Z,7.33
2018-01-06T14:34:47.922Z,5.63
2018-01-06T14:37:16.226Z,3.93
2018-01-06T14:39:43.752Z,2.37
2018-01-06T14:42:11.669Z,3.60
2018-01-06T14:44:40.007Z,4.50
2018-01-06T14:47:08.285Z,5.23
2018-01-06T14:49:37.445Z,3.67
2018-01-06T14:52:04.991Z,2.63
2018-01-06T14:54:33.521Z,3.83
2018-01-06T14:57:01.535Z,4.20
2018-01-06T14:59:29.845Z,2.10
2018-01-06T15:01:58.868Z,3.93
2018-01-06T15:04:26.463Z,2.00
2018-01-06T15:06:54.740Z,2.13
2018-01-06T15:09:22.259Z,2.23
2018-01-06T15:11:50.239Z,3.10
2018-01-06T15:14:18.542Z,2.90
2018-01-06T15:16:47.852Z,2.20
2018-01-06T15:19:15.825Z,2.40
2018-01-06T15:21:43.329Z,2.43
2018-01-06T15:24:11.760Z,3.10
2018-01-06T15:26:40.045Z,2.30
2018-01-06T15:29:08.342Z,2.07
2018-01-06T15:31:36.660Z,2.20
2018-01-06T15:34:05.268Z,3.30
2018-01-06T15:36:33.560Z,4.70
2018-01-06T15:39:02.971Z,2.10
2018-01-06T15:41:31.272Z,3.17
2018-01-06T15:43:59.083Z,2.43
2018-01-06T15:46:26.617Z,2.30
2018-01-06T15:48:54.955Z,2.37
2018-01-06T15:51:23.298Z,2.57
2018-01-06T15:53:52.156Z,4.30
2018-01-06T15:56:20.080Z,4.40
2018-01-06T15:58:48.377Z,8.53
2018-01-06T16:01:16.669Z,4.03
2018-01-06T16:03:44.957Z,7.13
2018-01-06T16:06:14.268Z,11.97
2018-01-06T16:08:41.784Z,8.30
2018-01-06T16:11:09.797Z,6.10
2018-01-06T16:13:38.109Z,7.80
2018-01-06T16:16:06.722Z,7.07
2018-01-06T16:18:34.665Z,7.33
2018-01-06T16:21:02.597Z,8.20
2018-01-06T16:23:30.145Z,5.30
2018-01-06T16:25:57.677Z,5.20
2018-01-06T16:28:25.234Z,13.20
2018-01-06T16:30:52.762Z,8.63
2018-01-06T16:33:21.033Z,9.60
2018-01-06T16:35:48.607Z,8.90
2018-01-06T16:38:17.525Z,4.20
2018-01-06T16:40:45.060Z,6.00
2018-01-06T16:43:13.394Z,4.67
2018-01-06T16:45:40.924Z,4.90
2018-01-06T16:48:08.439Z,4.80
2018-01-06T16:50:36.815Z,6.50
2018-01-06T16:53:04.427Z,4.80
2018-01-06T16:55:31.967Z,5.70
2018-01-06T16:57:59.751Z,6.57
2018-01-06T17:00:27.270Z,7.03
2018-01-06T17:02:56.581Z,6.30
2018-01-06T17:05:24.171Z,7.70
2018-01-06T17:07:52.243Z,6.83
2018-01-06T17:10:19.757Z,5.87
2018-01-06T17:12:47.341Z,6.10
2018-01-06T17:15:14.856Z,5.70
2018-01-06T17:17:42.443Z,8.30
2018-01-06T17:20:09.964Z,7.40
2018-01-06T17:22:37.498Z,8.13
2018-01-06T17:25:05.097Z,6.70
2018-01-06T17:27:32.634Z,10.50
2018-01-06T17:30:01.047Z,9.77
2018-01-06T17:32:28.977Z,8.80
2018-01-06T17:34:56.532Z,11.93
2018-01-06T17:37:24.114Z,7.40
2018-01-06T17:39:51.684Z,7.77
2018-01-06T17:42:19.587Z,6.47
2018-01-06T17:44:47.143Z,5.50
2018-01-06T17:47:15.484Z,7.07
2018-01-06T17:49:42.988Z,8.83
2018-01-06T17:52:11.309Z,10.57
2018-01-06T17:54:38.821Z,6.70
2018-01-06T17:57:06.680Z,6.37
2018-01-06T17:59:34.235Z,7.93
2018-01-06T18:02:01.811Z,7.03
2018-01-06T18:04:29.793Z,8.43
2018-01-06T18:06:57.370Z,7.03
2018-01-06T18:09:24.884Z,7.73
2018-01-06T18:11:52.424Z,6.73
2018-01-06T18:14:20.701Z,6.90
2018-01-06T18:16:49.001Z,8.63
2018-01-06T18:19:16.977Z,7.67
2018-01-06T18:21:45.071Z,7.63
2018-01-06T18:24:12.601Z,7.20
2018-01-06T18:26:40.854Z,5.93
2018-01-06T18:29:08.390Z,9.97
2018-01-06T18:31:35.941Z,7.60
2018-01-06T18:34:03.517Z,6.80
2018-01-06T18:36:31.077Z,7.37
2018-01-06T18:38:58.613Z,6.30
2018-01-06T18:41:26.192Z,10.00
2018-01-06T18:43:54.227Z,7.60
2018-01-06T18:46:21.795Z,7.87
2018-01-06T18:48:49.401Z,6.80
2018-01-06T18:51:16.972Z,6.53
2018-01-06T18:53:44.550Z,8.53
2018-01-06T18:56:12.104Z,7.67
2018-01-06T18:58:40.311Z,6.40
2018-01-06T19:01:07.872Z,6.53
2018-01-06T19:03:35.440Z,7.80
2018-01-06T19:06:02.991Z,11.53
2018-01-06T19:08:31.341Z,8.17
2018-01-06T19:10:59.512Z,8.53
2018-01-06T19:13:27.854Z,9.90
2018-01-06T19:15:56.383Z,8.97
2018-01-06T19:18:24.740Z,8.63
2018-01-06T19:20:52.328Z,8.80
2018-01-06T19:23:20.136Z,8.87
2018-01-06T19:25:47.695Z,32.00
2018-01-06T19:28:15.689Z,55.33
2018-01-06T19:30:43.238Z,33.00
2018-01-06T19:33:10.832Z,13.80
2018-01-06T19:35:38.405Z,14.23
2018-01-06T19:38:06.255Z,9.77
2018-01-06T19:40:34.224Z,8.60
2018-01-06T19:43:01.788Z,12.53
2018-01-06T19:45:29.405Z,10.13
2018-01-06T19:47:57.400Z,10.67
2018-01-06T19:50:24.985Z,13.27
2018-01-06T19:52:52.557Z,13.40
2018-01-06T19:55:20.136Z,14.43
2018-01-06T19:57:49.267Z,13.20
2018-01-06T20:00:16.856Z,12.80
2018-01-06T20:02:44.416Z,16.93
2018-01-06T20:05:12.769Z,14.37
2018-01-06T20:07:40.337Z,14.37
2018-01-06T20:10:08.127Z,13.90
2018-01-06T20:12:35.691Z,13.20
2018-01-06T20:15:04.233Z,20.70
2018-01-06T20:17:31.803Z,15.67
2018-01-06T20:20:00.188Z,13.97
2018-01-06T20:22:27.913Z,20.50
2018-01-06T20:24:55.540Z,15.83
2018-01-06T20:27:23.109Z,11.10
2018-01-06T20:29:51.458Z,18.90
2018-01-06T20:32:19.024Z,19.37
2018-01-06T20:34:46.613Z,20.23
2018-01-06T20:37:14.193Z,13.83
2018-01-06T20:39:41.828Z,19.20
2018-01-06T20:42:10.280Z,18.57
2018-01-06T20:44:37.892Z,22.33
2018-01-06T20:47:05.472Z,27.57
2018-01-06T20:49:33.727Z,19.30
2018-01-06T20:52:01.320Z,17.70
2018-01-06T20:54:28.896Z,17.53
2018-01-06T20:56:56.472Z,19.67
2018-01-06T20:59:24.043Z,19.30
2018-01-06T21:01:51.642Z,17.77
2018-01-06T21:04:19.603Z,16.17
2018-01-06T21:06:47.193Z,15.17
2018-01-06T21:09:14.766Z,15.70
2018-01-06T21:11:43.972Z,15.67
2018-01-06T21:14:11.543Z,12.20
2018-01-06T21:16:39.122Z,11.90
2018-01-06T21:19:06.733Z,10.40
2018-01-06T21:21:35.084Z,21.73
2018-01-06T21:24:02.657Z,11.37
2018-01-06T21:26:31.007Z,13.10
2018-01-06T21:28:58.617Z,12.27
2018-01-06T21:31:26.187Z,18.13
2018-01-06T21:33:53.788Z,12.17
2018-01-06T21:36:21.375Z,14.67
2018-01-06T21:38:48.956Z,12.00
2018-01-06T21:41:17.308Z,16.00
2018-01-06T21:43:44.885Z,14.93
2018-01-06T21:46:13.235Z,13.37
2018-01-06T21:48:40.803Z,12.70
2018-01-06T21:51:08.378Z,20.30
2018-01-06T21:53:36.704Z,18.63
2018-01-06T21:56:04.292Z,25.03
2018-01-06T21:58:32.251Z,35.00
2018-01-06T22:00:59.820Z,27.13
2018-01-06T22:03:27.396Z,21.70
2018-01-06T22:05:54.965Z,19.20
2018-01-06T22:08:22.576Z,17.00
2018-01-06T22:10:50.147Z,16.80
2018-01-06T22:13:17.722Z,14.97
2018-01-06T22:15:45.289Z,16.77
2018-01-06T22:18:13.272Z,18.43
2018-01-06T22:20:40.844Z,18.57
2018-01-06T22:23:09.190Z,17.10
2018-01-06T22:25:36.753Z,19.47
2018-01-06T22:28:04.328Z,20.80
2018-01-06T22:30:31.904Z,20.37
2018-01-06T22:32:59.498Z,18.70
2018-01-06T22:35:27.064Z,18.77
2018-01-06T22:37:54.648Z,17.83
2018-01-06T22:40:22.207Z,15.70
2018-01-06T22:42:49.793Z,18.60
2018-01-06T22:45:17.826Z,22.10
2018-01-06T22:47:45.395Z,15.83
2018-01-06T22:50:12.969Z,19.00
2018-01-06T22:52:40.560Z,18.97
2018-01-06T22:55:08.156Z,19.37
2018-01-06T22:57:36.134Z,15.87
2018-01-06T23:00:04.565Z,20.17
2018-01-06T23:02:32.164Z,19.60
2018-01-06T23:05:00.122Z,26.40
2018-01-06T23:07:28.783Z,26.53
2018-01-06T23:09:56.378Z,19.53
2018-01-06T23:12:23.956Z,18.47
2018-01-06T23:14:51.547Z,17.33
2018-01-06T23:17:19.124Z,20.03
2018-01-06T23:19:47.045Z,22.73
2018-01-06T23:22:15.316Z,18.03
2018-01-06T23:24:42.899Z,19.77
2018-01-06T23:27:10.464Z,19.87
2018-01-06T23:29:38.043Z,16.30
2018-01-06T23:32:06.760Z,15.33
2018-01-06T23:34:34.345Z,17.13
2018-01-06T23:37:01.911Z,22.97
2018-01-06T23:39:29.500Z,20.40
2018-01-06T23:41:58.278Z,22.20
2018-01-06T23:44:27.956Z,17.00
2018-01-06T23:46:55.528Z,18.80
2018-01-06T23:49:23.117Z,19.10
2018-01-06T23:51:51.980Z,19.23
2018-01-06T23:54:19.565Z,17.60
2018-01-06T23:56:47.136Z,17.87
2018-01-06T23:59:14.715Z,16.00
